sensor_id;sensor_type;location;lat;lon;timestamp;pressure;altitude;pressure_sealevel;temperature;humidity
34081;BME280;20358;50.272;19.026;2023-05-31T00:00:07;98846.75;;;11.49;42.54
34081;BME280;20358;50.272;19.026;2023-05-31T00:03:15;98843.69;;;11.55;41.91
34081;BME280;20358;50.272;19.026;2023-05-31T00:06:23;98850.34;;;11.61;42.29
34081;BME280;20358;50.272;19.026;2023-05-31T00:09:32;98843.34;;;11.60;42.55
34081;BME280;20358;50.272;19.026;2023-05-31T00:12:40;98843.69;;;11.55;42.78
34081;BME280;20358;50.272;19.026;2023-05-31T00:15:50;98832.78;;;11.47;42.44
34081;BME280;20358;50.272;19.026;2023-05-31T00:18:58;98815.88;;;11.37;42.58
34081;BME280;20358;50.272;19.026;2023-05-31T00:22:05;98844.09;;;11.49;42.88
34081;BME280;20358;50.272;19.026;2023-05-31T00:25:17;98844.03;;;11.38;42.92
34081;BME280;20358;50.272;19.026;2023-05-31T00:28:24;98849.09;;;11.29;42.67
34081;BME280;20358;50.272;19.026;2023-05-31T00:31:36;98845.16;;;11.22;42.27
34081;BME280;20358;50.272;19.026;2023-05-31T00:34:43;98844.97;;;11.12;42.67
34081;BME280;20358;50.272;19.026;2023-05-31T00:37:50;98847.59;;;10.99;42.60
34081;BME280;20358;50.272;19.026;2023-05-31T00:41:00;98853.09;;;10.84;43.82
34081;BME280;20358;50.272;19.026;2023-05-31T00:44:08;98855.19;;;10.79;43.59
34081;BME280;20358;50.272;19.026;2023-05-31T00:47:15;98851.78;;;10.77;43.95
34081;BME280;20358;50.272;19.026;2023-05-31T00:50:24;98863.41;;;10.74;43.68
34081;BME280;20358;50.272;19.026;2023-05-31T00:53:35;98860.16;;;10.71;43.48
34081;BME280;20358;50.272;19.026;2023-05-31T00:56:48;98856.78;;;10.69;44.06
34081;BME280;20358;50.272;19.026;2023-05-31T00:59:55;98853.28;;;10.68;44.29
34081;BME280;20358;50.272;19.026;2023-05-31T01:03:05;98855.59;;;10.73;44.48
34081;BME280;20358;50.272;19.026;2023-05-31T01:06:13;98837.50;;;10.67;45.13
34081;BME280;20358;50.272;19.026;2023-05-31T01:09:28;98836.97;;;10.62;45.37
34081;BME280;20358;50.272;19.026;2023-05-31T01:12:51;98858.03;;;10.76;45.38
34081;BME280;20358;50.272;19.026;2023-05-31T01:16:20;98863.72;;;10.70;45.63
34081;BME280;20358;50.272;19.026;2023-05-31T01:19:44;98854.19;;;10.55;44.79
34081;BME280;20358;50.272;19.026;2023-05-31T01:23:04;98859.16;;;10.59;45.01
34081;BME280;20358;50.272;19.026;2023-05-31T01:26:35;98856.81;;;10.55;44.90
34081;BME280;20358;50.272;19.026;2023-05-31T01:29:45;98799.25;;;10.20;45.72
34081;BME280;20358;50.272;19.026;2023-05-31T01:33:00;98858.53;;;10.56;45.21
34081;BME280;20358;50.272;19.026;2023-05-31T01:36:09;98836.53;;;10.42;45.69
34081;BME280;20358;50.272;19.026;2023-05-31T01:39:20;98859.59;;;10.53;45.75
34081;BME280;20358;50.272;19.026;2023-05-31T01:42:30;98788.84;;;10.05;45.72
34081;BME280;20358;50.272;19.026;2023-05-31T01:45:39;98827.19;;;10.24;45.03
34081;BME280;20358;50.272;19.026;2023-05-31T01:48:48;98860.88;;;10.33;44.75
34081;BME280;20358;50.272;19.026;2023-05-31T01:51:58;98856.75;;;10.29;44.90
34081;BME280;20358;50.272;19.026;2023-05-31T01:55:08;98851.88;;;10.23;44.76
34081;BME280;20358;50.272;19.026;2023-05-31T01:58:21;98853.81;;;10.20;44.70
34081;BME280;20358;50.272;19.026;2023-05-31T02:01:31;98861.97;;;10.17;45.17
34081;BME280;20358;50.272;19.026;2023-05-31T02:04:40;98866.59;;;10.13;45.60
34081;BME280;20358;50.272;19.026;2023-05-31T02:07:49;98866.78;;;10.10;45.14
34081;BME280;20358;50.272;19.026;2023-05-31T02:11:01;98844.31;;;9.91;45.76
34081;BME280;20358;50.272;19.026;2023-05-31T02:14:13;98871.75;;;9.88;45.29
34081;BME280;20358;50.272;19.026;2023-05-31T02:17:29;98846.72;;;9.67;46.68
34081;BME280;20358;50.272;19.026;2023-05-31T02:20:36;98865.75;;;9.72;46.33
34081;BME280;20358;50.272;19.026;2023-05-31T02:23:47;98867.81;;;9.67;46.34
34081;BME280;20358;50.272;19.026;2023-05-31T02:26:54;98864.81;;;9.59;46.24
34081;BME280;20358;50.272;19.026;2023-05-31T02:30:06;98855.50;;;9.39;47.43
34081;BME280;20358;50.272;19.026;2023-05-31T02:33:14;98849.56;;;9.21;47.36
34081;BME280;20358;50.272;19.026;2023-05-31T02:36:22;98866.72;;;9.29;48.61
34081;BME280;20358;50.272;19.026;2023-05-31T02:39:40;98844.84;;;9.12;47.92
34081;BME280;20358;50.272;19.026;2023-05-31T02:42:48;98861.38;;;9.14;48.41
34081;BME280;20358;50.272;19.026;2023-05-31T02:46:00;98867.78;;;9.10;48.45
34081;BME280;20358;50.272;19.026;2023-05-31T02:49:08;98859.50;;;9.02;48.77
34081;BME280;20358;50.272;19.026;2023-05-31T02:52:16;98851.56;;;8.88;48.83
34081;BME280;20358;50.272;19.026;2023-05-31T02:55:45;98825.41;;;8.71;49.19
34081;BME280;20358;50.272;19.026;2023-05-31T02:59:15;98871.91;;;9.00;48.96
34081;BME280;20358;50.272;19.026;2023-05-31T03:02:33;98805.63;;;8.64;49.11
34081;BME280;20358;50.272;19.026;2023-05-31T03:05:49;98875.88;;;9.07;49.08
34081;BME280;20358;50.272;19.026;2023-05-31T03:08:58;98874.75;;;9.11;50.06
34081;BME280;20358;50.272;19.026;2023-05-31T03:12:10;98883.25;;;9.16;49.02
34081;BME280;20358;50.272;19.026;2023-05-31T03:15:20;98826.53;;;8.81;50.12
34081;BME280;20358;50.272;19.026;2023-05-31T03:18:30;98858.09;;;8.97;50.04
34081;BME280;20358;50.272;19.026;2023-05-31T03:21:43;98891.22;;;9.15;50.34
34081;BME280;20358;50.272;19.026;2023-05-31T03:24:49;98901.09;;;9.11;49.39
34081;BME280;20358;50.272;19.026;2023-05-31T03:27:57;98894.50;;;9.04;50.03
34081;BME280;20358;50.272;19.026;2023-05-31T03:31:06;98898.91;;;9.04;49.86
34081;BME280;20358;50.272;19.026;2023-05-31T03:34:16;98896.28;;;9.04;50.46
34081;BME280;20358;50.272;19.026;2023-05-31T03:37:25;98895.53;;;9.02;50.87
34081;BME280;20358;50.272;19.026;2023-05-31T03:40:42;98868.41;;;8.86;51.20
34081;BME280;20358;50.272;19.026;2023-05-31T03:43:50;98901.28;;;9.08;50.53
34081;BME280;20358;50.272;19.026;2023-05-31T03:46:58;98880.19;;;9.08;51.00
34081;BME280;20358;50.272;19.026;2023-05-31T03:50:08;98901.91;;;9.28;50.20
34081;BME280;20358;50.272;19.026;2023-05-31T03:53:19;98896.09;;;9.37;50.59
34081;BME280;20358;50.272;19.026;2023-05-31T03:56:28;98897.13;;;9.48;50.00
34081;BME280;20358;50.272;19.026;2023-05-31T03:59:36;98891.53;;;9.53;50.29
34081;BME280;20358;50.272;19.026;2023-05-31T04:02:47;98874.25;;;9.49;50.10
34081;BME280;20358;50.272;19.026;2023-05-31T04:06:12;98886.28;;;9.67;49.89
34081;BME280;20358;50.272;19.026;2023-05-31T04:09:19;98888.13;;;9.79;50.40
34081;BME280;20358;50.272;19.026;2023-05-31T04:12:29;98884.75;;;9.91;50.35
34081;BME280;20358;50.272;19.026;2023-05-31T04:15:42;98879.81;;;9.99;49.77
34081;BME280;20358;50.272;19.026;2023-05-31T04:18:50;98834.09;;;9.72;50.11
34081;BME280;20358;50.272;19.026;2023-05-31T04:22:02;98885.06;;;10.13;50.05
34081;BME280;20358;50.272;19.026;2023-05-31T04:25:10;98889.00;;;10.20;49.80
34081;BME280;20358;50.272;19.026;2023-05-31T04:28:22;98882.50;;;10.26;50.18
34081;BME280;20358;50.272;19.026;2023-05-31T04:31:37;98874.81;;;10.35;49.50
34081;BME280;20358;50.272;19.026;2023-05-31T04:35:04;98886.19;;;10.50;49.42
34081;BME280;20358;50.272;19.026;2023-05-31T04:38:19;98884.72;;;10.59;49.30
34081;BME280;20358;50.272;19.026;2023-05-31T04:41:32;98871.50;;;10.59;48.59
34081;BME280;20358;50.272;19.026;2023-05-31T04:44:46;98890.13;;;10.70;48.91
34081;BME280;20358;50.272;19.026;2023-05-31T04:48:10;98881.09;;;10.74;49.52
34081;BME280;20358;50.272;19.026;2023-05-31T04:51:41;98891.34;;;10.91;49.18
34081;BME280;20358;50.272;19.026;2023-05-31T04:54:52;98893.50;;;10.59;49.50
34081;BME280;20358;50.272;19.026;2023-05-31T04:58:01;98896.09;;;10.47;49.94
34081;BME280;20358;50.272;19.026;2023-05-31T05:01:09;98899.91;;;10.42;50.03
34081;BME280;20358;50.272;19.026;2023-05-31T05:04:27;98904.53;;;10.39;50.19
34081;BME280;20358;50.272;19.026;2023-05-31T05:07:34;98916.13;;;10.36;50.80
34081;BME280;20358;50.272;19.026;2023-05-31T05:10:45;98903.63;;;10.53;50.87
34081;BME280;20358;50.272;19.026;2023-05-31T05:13:54;98890.25;;;10.68;50.25
34081;BME280;20358;50.272;19.026;2023-05-31T05:17:04;98918.00;;;11.13;48.85
34081;BME280;20358;50.272;19.026;2023-05-31T05:20:14;98896.19;;;11.36;48.09
34081;BME280;20358;50.272;19.026;2023-05-31T05:23:27;98906.44;;;11.53;47.77
34081;BME280;20358;50.272;19.026;2023-05-31T05:26:43;98904.50;;;11.68;47.91
34081;BME280;20358;50.272;19.026;2023-05-31T05:29:52;98909.03;;;11.79;47.17
34081;BME280;20358;50.272;19.026;2023-05-31T05:32:59;98908.19;;;11.91;47.00
34081;BME280;20358;50.272;19.026;2023-05-31T05:36:08;98906.56;;;12.01;47.14
34081;BME280;20358;50.272;19.026;2023-05-31T05:39:23;98909.91;;;12.15;46.62
34081;BME280;20358;50.272;19.026;2023-05-31T05:42:35;98910.31;;;12.35;46.58
34081;BME280;20358;50.272;19.026;2023-05-31T05:45:43;98915.34;;;12.50;46.82
34081;BME280;20358;50.272;19.026;2023-05-31T05:48:51;98898.53;;;12.62;46.56
34081;BME280;20358;50.272;19.026;2023-05-31T05:52:00;98910.31;;;12.93;45.72
34081;BME280;20358;50.272;19.026;2023-05-31T05:55:08;98911.50;;;13.13;45.81
34081;BME280;20358;50.272;19.026;2023-05-31T05:58:20;98905.50;;;13.33;45.54
34081;BME280;20358;50.272;19.026;2023-05-31T06:01:50;98917.34;;;13.62;45.07
34081;BME280;20358;50.272;19.026;2023-05-31T06:05:00;98913.25;;;13.91;43.40
34081;BME280;20358;50.272;19.026;2023-05-31T06:08:16;98906.50;;;14.09;43.01
34081;BME280;20358;50.272;19.026;2023-05-31T06:11:23;98905.16;;;14.26;42.08
34081;BME280;20358;50.272;19.026;2023-05-31T06:14:35;98911.88;;;14.41;42.02
34081;BME280;20358;50.272;19.026;2023-05-31T06:17:42;98918.72;;;14.55;41.46
34081;BME280;20358;50.272;19.026;2023-05-31T06:20:54;98917.00;;;14.76;41.60
34081;BME280;20358;50.272;19.026;2023-05-31T06:24:03;98911.75;;;14.86;40.61
34081;BME280;20358;50.272;19.026;2023-05-31T06:27:11;98913.25;;;14.99;40.42
34081;BME280;20358;50.272;19.026;2023-05-31T06:30:23;98911.72;;;15.17;40.74
34081;BME280;20358;50.272;19.026;2023-05-31T06:33:33;98922.00;;;15.31;40.13
34081;BME280;20358;50.272;19.026;2023-05-31T06:36:42;98911.03;;;15.46;40.28
34081;BME280;20358;50.272;19.026;2023-05-31T06:39:50;98898.03;;;15.52;39.55
34081;BME280;20358;50.272;19.026;2023-05-31T06:42:57;98906.44;;;15.68;39.20
34081;BME280;20358;50.272;19.026;2023-05-31T06:46:24;98907.00;;;15.72;38.35
34081;BME280;20358;50.272;19.026;2023-05-31T06:49:51;98909.84;;;15.80;38.67
34081;BME280;20358;50.272;19.026;2023-05-31T06:53:09;98911.00;;;15.87;38.06
34081;BME280;20358;50.272;19.026;2023-05-31T06:56:21;98919.16;;;15.95;37.70
34081;BME280;20358;50.272;19.026;2023-05-31T06:59:31;98907.06;;;15.91;37.42
34081;BME280;20358;50.272;19.026;2023-05-31T07:02:44;98905.09;;;15.93;37.58
34081;BME280;20358;50.272;19.026;2023-05-31T07:05:53;98908.25;;;15.98;37.43
34081;BME280;20358;50.272;19.026;2023-05-31T07:09:00;98913.00;;;16.04;37.44
34081;BME280;20358;50.272;19.026;2023-05-31T07:12:12;98914.00;;;16.03;36.62
34081;BME280;20358;50.272;19.026;2023-05-31T07:15:20;98919.78;;;16.08;36.44
34081;BME280;20358;50.272;19.026;2023-05-31T07:18:31;98914.31;;;16.19;36.35
34081;BME280;20358;50.272;19.026;2023-05-31T07:21:39;98916.44;;;16.25;36.39
34081;BME280;20358;50.272;19.026;2023-05-31T07:24:47;98902.34;;;16.34;36.18
34081;BME280;20358;50.272;19.026;2023-05-31T07:27:55;98906.13;;;16.41;36.03
34081;BME280;20358;50.272;19.026;2023-05-31T07:31:03;98909.78;;;16.40;36.12
34081;BME280;20358;50.272;19.026;2023-05-31T07:34:16;98907.81;;;16.42;36.55
34081;BME280;20358;50.272;19.026;2023-05-31T07:37:24;98901.94;;;16.58;36.59
34081;BME280;20358;50.272;19.026;2023-05-31T07:40:32;98889.03;;;16.73;36.66
34081;BME280;20358;50.272;19.026;2023-05-31T07:43:42;98892.97;;;16.88;36.55
34081;BME280;20358;50.272;19.026;2023-05-31T07:46:50;98888.19;;;17.01;36.74
34081;BME280;20358;50.272;19.026;2023-05-31T07:50:02;98896.06;;;17.12;36.62
34081;BME280;20358;50.272;19.026;2023-05-31T07:53:09;98889.16;;;17.19;35.84
34081;BME280;20358;50.272;19.026;2023-05-31T07:56:19;98883.41;;;17.24;35.29
34081;BME280;20358;50.272;19.026;2023-05-31T07:59:28;98892.25;;;17.24;35.29
34081;BME280;20358;50.272;19.026;2023-05-31T08:02:36;98889.44;;;16.97;35.70
34081;BME280;20358;50.272;19.026;2023-05-31T08:05:45;98882.88;;;16.91;35.61
34081;BME280;20358;50.272;19.026;2023-05-31T08:08:57;98882.28;;;16.97;35.48
34081;BME280;20358;50.272;19.026;2023-05-31T08:12:05;98879.66;;;17.07;35.65
34081;BME280;20358;50.272;19.026;2023-05-31T08:15:17;98881.00;;;17.21;35.80
34081;BME280;20358;50.272;19.026;2023-05-31T08:18:24;98876.38;;;17.13;34.60
34081;BME280;20358;50.272;19.026;2023-05-31T08:21:35;98878.22;;;17.12;34.48
34081;BME280;20358;50.272;19.026;2023-05-31T08:24:42;98881.72;;;17.03;35.50
34081;BME280;20358;50.272;19.026;2023-05-31T08:27:51;98887.88;;;16.94;35.93
34081;BME280;20358;50.272;19.026;2023-05-31T08:30:59;98856.75;;;16.66;35.20
34081;BME280;20358;50.272;19.026;2023-05-31T08:34:07;98885.09;;;16.96;36.01
34081;BME280;20358;50.272;19.026;2023-05-31T08:37:19;98868.66;;;17.00;35.80
34081;BME280;20358;50.272;19.026;2023-05-31T08:40:26;98831.50;;;16.70;36.15
34081;BME280;20358;50.272;19.026;2023-05-31T08:43:39;98895.22;;;17.02;36.36
34081;BME280;20358;50.272;19.026;2023-05-31T08:46:47;98881.16;;;17.00;36.05
34081;BME280;20358;50.272;19.026;2023-05-31T08:49:57;98885.94;;;17.06;36.20
34081;BME280;20358;50.272;19.026;2023-05-31T08:53:11;98881.88;;;17.11;36.03
34081;BME280;20358;50.272;19.026;2023-05-31T08:56:20;98878.63;;;17.27;36.28
34081;BME280;20358;50.272;19.026;2023-05-31T08:59:32;98875.88;;;17.46;35.93
34081;BME280;20358;50.272;19.026;2023-05-31T09:02:43;98867.41;;;17.14;35.65
34081;BME280;20358;50.272;19.026;2023-05-31T09:05:53;98875.97;;;16.70;36.10
34081;BME280;20358;50.272;19.026;2023-05-31T09:09:04;98868.25;;;16.57;36.14
34081;BME280;20358;50.272;19.026;2023-05-31T09:12:15;98873.88;;;16.64;36.41
34081;BME280;20358;50.272;19.026;2023-05-31T09:15:23;98880.19;;;16.63;36.50
34081;BME280;20358;50.272;19.026;2023-05-31T09:18:36;98884.97;;;16.49;36.57
34081;BME280;20358;50.272;19.026;2023-05-31T09:21:46;98875.53;;;16.45;36.75
34081;BME280;20358;50.272;19.026;2023-05-31T09:25:00;98881.44;;;16.39;36.69
34081;BME280;20358;50.272;19.026;2023-05-31T09:28:10;98873.03;;;16.53;36.50
34081;BME280;20358;50.272;19.026;2023-05-31T09:31:20;98868.84;;;16.70;36.35
34081;BME280;20358;50.272;19.026;2023-05-31T09:34:29;98875.25;;;16.87;35.95
34081;BME280;20358;50.272;19.026;2023-05-31T09:37:43;98873.00;;;16.92;35.46
34081;BME280;20358;50.272;19.026;2023-05-31T09:40:54;98872.31;;;16.90;35.33
34081;BME280;20358;50.272;19.026;2023-05-31T09:44:02;98862.34;;;17.01;35.96
34081;BME280;20358;50.272;19.026;2023-05-31T09:47:13;98866.16;;;17.08;35.26
34081;BME280;20358;50.272;19.026;2023-05-31T09:50:22;98859.84;;;17.09;35.38
34081;BME280;20358;50.272;19.026;2023-05-31T09:53:30;98858.16;;;17.08;35.47
34081;BME280;20358;50.272;19.026;2023-05-31T09:56:41;98849.69;;;17.13;35.37
34081;BME280;20358;50.272;19.026;2023-05-31T09:59:56;98857.59;;;17.14;35.09
34081;BME280;20358;50.272;19.026;2023-05-31T10:03:04;98845.78;;;17.17;35.20
34081;BME280;20358;50.272;19.026;2023-05-31T10:06:16;98842.66;;;17.22;34.53
34081;BME280;20358;50.272;19.026;2023-05-31T10:09:25;98846.00;;;17.33;35.04
34081;BME280;20358;50.272;19.026;2023-05-31T10:12:42;98831.38;;;17.37;34.83
34081;BME280;20358;50.272;19.026;2023-05-31T10:16:06;98834.84;;;17.47;34.35
34081;BME280;20358;50.272;19.026;2023-05-31T10:19:21;98825.38;;;17.62;35.15
34081;BME280;20358;50.272;19.026;2023-05-31T10:22:38;98824.19;;;17.84;34.52
34081;BME280;20358;50.272;19.026;2023-05-31T10:26:00;98828.56;;;18.03;34.27
34081;BME280;20358;50.272;19.026;2023-05-31T10:29:28;98820.84;;;18.00;34.40
34081;BME280;20358;50.272;19.026;2023-05-31T10:32:41;98818.78;;;17.94;33.90
34081;BME280;20358;50.272;19.026;2023-05-31T10:35:55;98818.78;;;17.94;33.69
34081;BME280;20358;50.272;19.026;2023-05-31T10:39:10;98817.72;;;17.77;34.22
34081;BME280;20358;50.272;19.026;2023-05-31T10:42:36;98821.38;;;17.76;34.41
34081;BME280;20358;50.272;19.026;2023-05-31T10:45:55;98816.63;;;17.80;34.35
34081;BME280;20358;50.272;19.026;2023-05-31T10:49:09;98819.31;;;17.97;34.08
34081;BME280;20358;50.272;19.026;2023-05-31T10:52:17;98821.03;;;18.16;33.83
34081;BME280;20358;50.272;19.026;2023-05-31T10:55:28;98810.09;;;18.27;33.10
34081;BME280;20358;50.272;19.026;2023-05-31T10:58:38;98824.19;;;18.29;33.44
34081;BME280;20358;50.272;19.026;2023-05-31T11:01:50;98814.38;;;18.20;33.77
34081;BME280;20358;50.272;19.026;2023-05-31T11:05:17;98813.63;;;18.10;33.38
34081;BME280;20358;50.272;19.026;2023-05-31T11:08:27;98819.16;;;17.99;33.69
34081;BME280;20358;50.272;19.026;2023-05-31T11:11:45;98805.72;;;17.91;33.02
34081;BME280;20358;50.272;19.026;2023-05-31T11:14:59;98806.31;;;17.85;33.77
34081;BME280;20358;50.272;19.026;2023-05-31T11:18:15;98797.31;;;17.86;33.56
34081;BME280;20358;50.272;19.026;2023-05-31T11:21:46;98796.56;;;17.93;34.44
34081;BME280;20358;50.272;19.026;2023-05-31T11:24:58;98775.72;;;17.97;33.75
34081;BME280;20358;50.272;19.026;2023-05-31T11:28:10;98795.41;;;17.96;33.42
34081;BME280;20358;50.272;19.026;2023-05-31T11:31:17;98783.75;;;17.97;33.52
34081;BME280;20358;50.272;19.026;2023-05-31T11:34:53;98772.06;;;17.98;33.53
34081;BME280;20358;50.272;19.026;2023-05-31T11:38:05;98776.28;;;18.00;33.36
34081;BME280;20358;50.272;19.026;2023-05-31T11:41:14;98778.19;;;18.08;33.93
34081;BME280;20358;50.272;19.026;2023-05-31T11:44:26;98768.94;;;18.02;33.45
34081;BME280;20358;50.272;19.026;2023-05-31T11:47:45;98763.50;;;17.94;33.05
34081;BME280;20358;50.272;19.026;2023-05-31T11:51:02;98761.38;;;17.98;33.53
34081;BME280;20358;50.272;19.026;2023-05-31T11:54:12;98752.59;;;18.05;33.70
34081;BME280;20358;50.272;19.026;2023-05-31T11:57:20;98770.00;;;18.09;33.44
34081;BME280;20358;50.272;19.026;2023-05-31T12:00:30;98759.19;;;18.11;33.54
34081;BME280;20358;50.272;19.026;2023-05-31T12:03:39;98755.81;;;18.26;33.52
34081;BME280;20358;50.272;19.026;2023-05-31T12:06:54;98757.09;;;18.40;33.13
34081;BME280;20358;50.272;19.026;2023-05-31T12:10:04;98756.72;;;18.35;32.37
34081;BME280;20358;50.272;19.026;2023-05-31T12:13:16;98753.44;;;18.41;32.73
34081;BME280;20358;50.272;19.026;2023-05-31T12:16:25;98752.53;;;18.50;32.27
34081;BME280;20358;50.272;19.026;2023-05-31T12:19:36;98761.25;;;18.52;32.24
34081;BME280;20358;50.272;19.026;2023-05-31T12:22:46;98740.44;;;18.46;32.14
34081;BME280;20358;50.272;19.026;2023-05-31T12:25:58;98741.50;;;18.53;32.22
34081;BME280;20358;50.272;19.026;2023-05-31T12:29:08;98742.38;;;18.54;32.54
34081;BME280;20358;50.272;19.026;2023-05-31T12:32:17;98736.16;;;18.53;32.79
34081;BME280;20358;50.272;19.026;2023-05-31T12:35:25;98751.53;;;18.51;32.02
34081;BME280;20358;50.272;19.026;2023-05-31T12:38:37;98743.81;;;18.48;31.89
34081;BME280;20358;50.272;19.026;2023-05-31T12:41:46;98747.47;;;18.47;32.46
34081;BME280;20358;50.272;19.026;2023-05-31T12:45:02;98733.66;;;18.52;31.94
34081;BME280;20358;50.272;19.026;2023-05-31T12:48:12;98729.59;;;18.65;32.06
34081;BME280;20358;50.272;19.026;2023-05-31T12:51:22;98730.75;;;18.88;32.02
34081;BME280;20358;50.272;19.026;2023-05-31T12:54:34;98705.97;;;18.86;31.78
34081;BME280;20358;50.272;19.026;2023-05-31T12:57:42;98717.91;;;19.00;31.50
34081;BME280;20358;50.272;19.026;2023-05-31T13:00:49;98726.13;;;18.98;31.20
34081;BME280;20358;50.272;19.026;2023-05-31T13:03:58;98732.09;;;18.92;30.88
34081;BME280;20358;50.272;19.026;2023-05-31T13:07:06;98715.63;;;18.79;30.88
34081;BME280;20358;50.272;19.026;2023-05-31T13:10:23;98715.69;;;18.44;31.47
34081;BME280;20358;50.272;19.026;2023-05-31T13:13:31;98711.31;;;18.61;31.71
34081;BME280;20358;50.272;19.026;2023-05-31T13:16:39;98720.44;;;18.76;31.40
34081;BME280;20358;50.272;19.026;2023-05-31T13:19:48;98683.81;;;18.76;30.75
34081;BME280;20358;50.272;19.026;2023-05-31T13:23:16;98698.69;;;19.05;31.29
34081;BME280;20358;50.272;19.026;2023-05-31T13:26:26;98701.13;;;19.16;31.97
34081;BME280;20358;50.272;19.026;2023-05-31T13:29:34;98699.84;;;19.20;31.56
34081;BME280;20358;50.272;19.026;2023-05-31T13:32:48;98702.50;;;19.20;30.83
34081;BME280;20358;50.272;19.026;2023-05-31T13:35:58;98715.72;;;19.21;29.80
34081;BME280;20358;50.272;19.026;2023-05-31T13:39:04;98690.78;;;19.21;30.41
34081;BME280;20358;50.272;19.026;2023-05-31T13:42:21;98693.66;;;19.27;30.65
34081;BME280;20358;50.272;19.026;2023-05-31T13:45:31;98699.84;;;19.20;29.19
34081;BME280;20358;50.272;19.026;2023-05-31T13:48:40;98685.22;;;19.14;29.54
34081;BME280;20358;50.272;19.026;2023-05-31T13:51:53;98686.94;;;19.23;30.48
34081;BME280;20358;50.272;19.026;2023-05-31T13:55:00;98688.81;;;19.31;29.91
34081;BME280;20358;50.272;19.026;2023-05-31T13:58:11;98663.91;;;19.38;29.80
34081;BME280;20358;50.272;19.026;2023-05-31T14:01:20;98665.75;;;19.46;30.20
34081;BME280;20358;50.272;19.026;2023-05-31T14:04:27;98665.44;;;19.49;29.52
34081;BME280;20358;50.272;19.026;2023-05-31T14:07:38;98662.63;;;19.50;29.97
34081;BME280;20358;50.272;19.026;2023-05-31T14:10:45;98659.09;;;19.50;29.50
34081;BME280;20358;50.272;19.026;2023-05-31T14:13:55;98657.63;;;19.64;29.48
34081;BME280;20358;50.272;19.026;2023-05-31T14:17:07;98652.44;;;19.70;29.51
34081;BME280;20358;50.272;19.026;2023-05-31T14:20:15;98635.34;;;19.63;29.33
34081;BME280;20358;50.272;19.026;2023-05-31T14:23:22;98649.72;;;19.62;28.91
34081;BME280;20358;50.272;19.026;2023-05-31T14:26:30;98649.09;;;19.68;29.07
34081;BME280;20358;50.272;19.026;2023-05-31T14:29:40;98655.78;;;19.72;28.70
34081;BME280;20358;50.272;19.026;2023-05-31T14:32:50;98651.59;;;19.78;28.58
34081;BME280;20358;50.272;19.026;2023-05-31T14:35:59;98644.06;;;19.81;27.84
34081;BME280;20358;50.272;19.026;2023-05-31T14:39:07;98657.19;;;19.92;28.31
34081;BME280;20358;50.272;19.026;2023-05-31T14:42:15;98648.47;;;19.90;28.13
34081;BME280;20358;50.272;19.026;2023-05-31T14:45:26;98643.09;;;19.98;28.00
34081;BME280;20358;50.272;19.026;2023-05-31T14:48:33;98658.69;;;20.03;28.13
34081;BME280;20358;50.272;19.026;2023-05-31T14:51:41;98641.28;;;20.15;27.90
34081;BME280;20358;50.272;19.026;2023-05-31T14:54:48;98634.75;;;20.17;27.67
34081;BME280;20358;50.272;19.026;2023-05-31T14:57:55;98645.78;;;20.31;26.99
34081;BME280;20358;50.272;19.026;2023-05-31T15:01:07;98637.75;;;20.47;26.50
34081;BME280;20358;50.272;19.026;2023-05-31T15:04:15;98637.66;;;20.87;27.03
34081;BME280;20358;50.272;19.026;2023-05-31T15:07:22;98631.81;;;21.22;26.32
34081;BME280;20358;50.272;19.026;2023-05-31T15:10:30;98628.44;;;21.82;26.35
34081;BME280;20358;50.272;19.026;2023-05-31T15:13:38;98623.84;;;22.50;26.16
34081;BME280;20358;50.272;19.026;2023-05-31T15:16:49;98620.72;;;23.20;24.67
34081;BME280;20358;50.272;19.026;2023-05-31T15:19:56;98630.19;;;23.66;23.40
34081;BME280;20358;50.272;19.026;2023-05-31T15:23:06;98617.25;;;24.19;23.59
34081;BME280;20358;50.272;19.026;2023-05-31T15:26:14;98612.41;;;24.97;23.41
34081;BME280;20358;50.272;19.026;2023-05-31T15:29:22;98609.53;;;25.53;22.67
34081;BME280;20358;50.272;19.026;2023-05-31T15:32:33;98616.31;;;26.03;21.59
34081;BME280;20358;50.272;19.026;2023-05-31T15:35:41;98555.72;;;26.10;21.21
34081;BME280;20358;50.272;19.026;2023-05-31T15:38:48;98578.16;;;26.83;21.43
34081;BME280;20358;50.272;19.026;2023-05-31T15:41:56;98603.59;;;27.46;20.64
34081;BME280;20358;50.272;19.026;2023-05-31T15:45:04;98610.75;;;27.72;19.15
34081;BME280;20358;50.272;19.026;2023-05-31T15:48:16;98608.72;;;27.61;19.16
34081;BME280;20358;50.272;19.026;2023-05-31T15:51:24;98597.00;;;27.67;19.63
34081;BME280;20358;50.272;19.026;2023-05-31T15:54:32;98589.88;;;27.66;19.58
34081;BME280;20358;50.272;19.026;2023-05-31T15:57:39;98586.09;;;27.80;19.54
34081;BME280;20358;50.272;19.026;2023-05-31T16:00:48;98598.13;;;27.90;19.53
34081;BME280;20358;50.272;19.026;2023-05-31T16:03:59;98596.50;;;27.83;19.40
34081;BME280;20358;50.272;19.026;2023-05-31T16:07:07;98592.34;;;27.74;19.46
34081;BME280;20358;50.272;19.026;2023-05-31T16:10:15;98594.22;;;27.80;19.92
34081;BME280;20358;50.272;19.026;2023-05-31T16:13:24;98582.25;;;27.94;19.94
34081;BME280;20358;50.272;19.026;2023-05-31T16:16:31;98575.06;;;27.99;19.32
34081;BME280;20358;50.272;19.026;2023-05-31T16:19:43;98572.00;;;27.96;19.33
34081;BME280;20358;50.272;19.026;2023-05-31T16:22:50;98571.63;;;27.55;19.75
34081;BME280;20358;50.272;19.026;2023-05-31T16:26:02;98563.75;;;27.47;20.21
34081;BME280;20358;50.272;19.026;2023-05-31T16:29:11;98548.47;;;27.52;19.64
34081;BME280;20358;50.272;19.026;2023-05-31T16:32:20;98541.69;;;27.68;20.10
34081;BME280;20358;50.272;19.026;2023-05-31T16:35:30;98571.53;;;27.99;19.37
34081;BME280;20358;50.272;19.026;2023-05-31T16:38:38;98565.09;;;28.18;19.64